Terminal Aerodrome Forecast
Issued by NWS Pittsburgh, PA

Home | Current Version | Previous Version | Text Only | Print | Product List | Glossary On
Versions: 1 2 3 4 5 6 7 8 9 10 11 12 13 14 15 16 17 18 19 20 21 22 23 24 25 26 27 28
000
FTUS41 KPBZ 231628 AAB
TAFPIT
TAF AMD
KPIT 231628Z 2316/2418 22004KT P6SM VCSH BKN015
     FM231700 23004KT 4SM -TSRA SCT015CB BKN050
     FM231930 26005KT P6SM BKN050
     FM240100 25005KT P6SM -SHRA VCTS BKN035CB
     FM240700 26004KT P6SM BKN015
     FM240900 28004KT 4SM BR BKN008=

USA.gov is the U.S. government's official web portal to all federal, state and local government web resources and services.